sensor_id;sensor_type;location;lat;lon;timestamp;pressure;altitude;pressure_sealevel;temperature;humidity
4981;BME280;2507;50.392;7.482;2023-11-18T00:01:48;101721.38;;;5.69;83.60
4981;BME280;2507;50.392;7.482;2023-11-18T00:04:13;101707.41;;;5.71;83.04
4981;BME280;2507;50.392;7.482;2023-11-18T00:06:42;101710.00;;;5.71;83.34
4981;BME280;2507;50.392;7.482;2023-11-18T00:09:11;101701.25;;;6.00;83.16
4981;BME280;2507;50.392;7.482;2023-11-18T00:11:40;101709.75;;;6.30;82.33
4981;BME280;2507;50.392;7.482;2023-11-18T00:14:06;101702.34;;;6.42;80.99
4981;BME280;2507;50.392;7.482;2023-11-18T00:16:31;101705.75;;;6.44;80.59
4981;BME280;2507;50.392;7.482;2023-11-18T00:18:57;101720.16;;;6.54;80.72
4981;BME280;2507;50.392;7.482;2023-11-18T00:21:24;101730.81;;;6.48;80.92
4981;BME280;2507;50.392;7.482;2023-11-18T00:23:49;101716.31;;;6.64;81.15
4981;BME280;2507;50.392;7.482;2023-11-18T00:26:14;101714.38;;;6.69;80.80
4981;BME280;2507;50.392;7.482;2023-11-18T00:28:40;101708.59;;;6.84;80.84
4981;BME280;2507;50.392;7.482;2023-11-18T00:31:05;101700.84;;;7.04;79.79
4981;BME280;2507;50.392;7.482;2023-11-18T00:33:31;101702.81;;;7.21;79.26
4981;BME280;2507;50.392;7.482;2023-11-18T00:35:57;101699.91;;;7.29;77.76
4981;BME280;2507;50.392;7.482;2023-11-18T00:38:22;101713.31;;;7.19;78.30
4981;BME280;2507;50.392;7.482;2023-11-18T00:40:47;101712.59;;;7.16;78.14
4981;BME280;2507;50.392;7.482;2023-11-18T00:43:13;101721.16;;;7.19;78.30
4981;BME280;2507;50.392;7.482;2023-11-18T00:45:38;101721.94;;;7.21;78.38
4981;BME280;2507;50.392;7.482;2023-11-18T00:48:04;101726.72;;;7.10;79.42
4981;BME280;2507;50.392;7.482;2023-11-18T00:50:31;101735.22;;;7.15;78.94
4981;BME280;2507;50.392;7.482;2023-11-18T00:52:58;101721.16;;;7.19;79.55
4981;BME280;2507;50.392;7.482;2023-11-18T00:55:23;101706.72;;;7.33;78.97
4981;BME280;2507;50.392;7.482;2023-11-18T00:57:48;101721.38;;;7.35;78.38
4981;BME280;2507;50.392;7.482;2023-11-18T01:00:15;101718.47;;;7.21;79.28
4981;BME280;2507;50.392;7.482;2023-11-18T01:02:47;101713.78;;;7.29;78.92
4981;BME280;2507;50.392;7.482;2023-11-18T01:05:13;101710.03;;;7.14;78.49
4981;BME280;2507;50.392;7.482;2023-11-18T01:07:39;101707.09;;;7.22;79.99
4981;BME280;2507;50.392;7.482;2023-11-18T01:10:06;101701.84;;;7.23;78.23
4981;BME280;2507;50.392;7.482;2023-11-18T01:12:32;101703.03;;;7.15;78.49
4981;BME280;2507;50.392;7.482;2023-11-18T01:14:57;101702.75;;;7.22;77.89
4981;BME280;2507;50.392;7.482;2023-11-18T01:17:23;101705.13;;;7.29;77.63
4981;BME280;2507;50.392;7.482;2023-11-18T01:19:49;101706.66;;;7.12;78.38
4981;BME280;2507;50.392;7.482;2023-11-18T01:22:14;101697.38;;;7.27;78.00
4981;BME280;2507;50.392;7.482;2023-11-18T01:24:40;101706.09;;;7.26;77.76
4981;BME280;2507;50.392;7.482;2023-11-18T01:27:06;101702.69;;;7.24;77.75
4981;BME280;2507;50.392;7.482;2023-11-18T01:29:34;101711.59;;;7.18;77.87
4981;BME280;2507;50.392;7.482;2023-11-18T01:32:00;101709.69;;;7.23;78.16
4981;BME280;2507;50.392;7.482;2023-11-18T01:34:25;101714.22;;;7.18;77.39
4981;BME280;2507;50.392;7.482;2023-11-18T01:36:50;101723.84;;;7.16;77.88
4981;BME280;2507;50.392;7.482;2023-11-18T01:39:16;101727.53;;;7.12;77.72
4981;BME280;2507;50.392;7.482;2023-11-18T01:41:46;101729.16;;;7.15;77.87
4981;BME280;2507;50.392;7.482;2023-11-18T01:44:11;101722.97;;;7.17;78.76
4981;BME280;2507;50.392;7.482;2023-11-18T01:46:40;101726.59;;;7.13;78.15
4981;BME280;2507;50.392;7.482;2023-11-18T01:49:05;101713.31;;;7.19;78.29
4981;BME280;2507;50.392;7.482;2023-11-18T01:51:32;101711.59;;;7.40;77.44
4981;BME280;2507;50.392;7.482;2023-11-18T01:54:00;101707.38;;;7.38;77.35
4981;BME280;2507;50.392;7.482;2023-11-18T01:56:27;101712.09;;;7.28;76.75
4981;BME280;2507;50.392;7.482;2023-11-18T01:58:53;101718.19;;;7.29;77.78
4981;BME280;2507;50.392;7.482;2023-11-18T02:01:19;101728.69;;;7.27;77.35
4981;BME280;2507;50.392;7.482;2023-11-18T02:03:44;101724.06;;;7.34;76.57
4981;BME280;2507;50.392;7.482;2023-11-18T02:06:10;101724.22;;;7.29;77.42
4981;BME280;2507;50.392;7.482;2023-11-18T02:08:36;101732.38;;;7.43;77.34
4981;BME280;2507;50.392;7.482;2023-11-18T02:11:28;101731.53;;;7.43;77.22
4981;BME280;2507;50.392;7.482;2023-11-18T02:13:58;101729.00;;;7.41;76.94
4981;BME280;2507;50.392;7.482;2023-11-18T02:16:28;101728.75;;;7.47;77.31
4981;BME280;2507;50.392;7.482;2023-11-18T02:18:53;101731.59;;;7.41;76.52
4981;BME280;2507;50.392;7.482;2023-11-18T02:21:20;101734.06;;;7.44;77.20
4981;BME280;2507;50.392;7.482;2023-11-18T02:23:48;101735.44;;;7.54;76.93
4981;BME280;2507;50.392;7.482;2023-11-18T02:26:23;101722.75;;;7.45;76.92
4981;BME280;2507;50.392;7.482;2023-11-18T02:28:49;101727.16;;;7.65;77.06
4981;BME280;2507;50.392;7.482;2023-11-18T02:31:17;101723.53;;;7.67;76.38
4981;BME280;2507;50.392;7.482;2023-11-18T02:33:55;101727.38;;;7.59;76.13
4981;BME280;2507;50.392;7.482;2023-11-18T02:36:32;101728.13;;;7.62;76.66
4981;BME280;2507;50.392;7.482;2023-11-18T02:39:05;101727.22;;;7.63;76.03
4981;BME280;2507;50.392;7.482;2023-11-18T02:41:36;101716.56;;;7.68;77.00
4981;BME280;2507;50.392;7.482;2023-11-18T02:44:04;101718.09;;;7.73;76.30
4981;BME280;2507;50.392;7.482;2023-11-18T02:46:36;101717.72;;;7.61;76.34
4981;BME280;2507;50.392;7.482;2023-11-18T02:49:02;101709.25;;;7.56;76.68
4981;BME280;2507;50.392;7.482;2023-11-18T02:51:27;101706.78;;;7.53;77.27
4981;BME280;2507;50.392;7.482;2023-11-18T02:53:53;101707.63;;;7.73;76.39
4981;BME280;2507;50.392;7.482;2023-11-18T02:56:19;101696.44;;;7.50;76.64
4981;BME280;2507;50.392;7.482;2023-11-18T02:58:45;101692.00;;;7.52;77.08
4981;BME280;2507;50.392;7.482;2023-11-18T03:01:10;101697.53;;;7.44;77.28
4981;BME280;2507;50.392;7.482;2023-11-18T03:03:35;101705.84;;;7.32;78.09
4981;BME280;2507;50.392;7.482;2023-11-18T03:06:01;101701.34;;;7.36;77.92
4981;BME280;2507;50.392;7.482;2023-11-18T03:08:26;101684.28;;;7.49;78.34
4981;BME280;2507;50.392;7.482;2023-11-18T03:10:54;101689.88;;;7.61;77.04
4981;BME280;2507;50.392;7.482;2023-11-18T03:13:19;101694.19;;;7.41;77.44
4981;BME280;2507;50.392;7.482;2023-11-18T03:15:45;101693.94;;;7.47;77.85
4981;BME280;2507;50.392;7.482;2023-11-18T03:18:12;101698.28;;;7.68;77.79
4981;BME280;2507;50.392;7.482;2023-11-18T03:20:37;101704.56;;;7.84;76.78
4981;BME280;2507;50.392;7.482;2023-11-18T03:23:03;101699.63;;;7.98;75.77
4981;BME280;2507;50.392;7.482;2023-11-18T03:25:29;101702.09;;;8.01;75.41
4981;BME280;2507;50.392;7.482;2023-11-18T03:27:54;101707.00;;;8.08;75.03
4981;BME280;2507;50.392;7.482;2023-11-18T03:30:20;101709.69;;;8.07;74.03
4981;BME280;2507;50.392;7.482;2023-11-18T03:32:45;101702.25;;;7.98;74.41
4981;BME280;2507;50.392;7.482;2023-11-18T03:35:10;101713.50;;;8.00;74.83
4981;BME280;2507;50.392;7.482;2023-11-18T03:37:36;101719.47;;;8.02;74.78
4981;BME280;2507;50.392;7.482;2023-11-18T03:40:07;101705.84;;;8.15;73.65
4981;BME280;2507;50.392;7.482;2023-11-18T03:42:32;101706.53;;;8.19;73.65
4981;BME280;2507;50.392;7.482;2023-11-18T03:44:57;101706.63;;;8.17;73.35
4981;BME280;2507;50.392;7.482;2023-11-18T03:47:23;101688.81;;;8.27;73.41
4981;BME280;2507;50.392;7.482;2023-11-18T03:49:50;101695.47;;;8.34;73.18
4981;BME280;2507;50.392;7.482;2023-11-18T03:52:15;101693.41;;;8.20;73.17
4981;BME280;2507;50.392;7.482;2023-11-18T03:54:40;101688.50;;;8.33;73.24
4981;BME280;2507;50.392;7.482;2023-11-18T03:57:06;101684.69;;;8.20;73.18
4981;BME280;2507;50.392;7.482;2023-11-18T03:59:32;101672.19;;;8.28;73.27
4981;BME280;2507;50.392;7.482;2023-11-18T04:01:57;101677.56;;;8.25;72.33
4981;BME280;2507;50.392;7.482;2023-11-18T04:04:23;101687.69;;;7.92;73.54
4981;BME280;2507;50.392;7.482;2023-11-18T04:06:48;101677.38;;;7.68;75.07
4981;BME280;2507;50.392;7.482;2023-11-18T04:09:13;101680.94;;;7.67;76.71
4981;BME280;2507;50.392;7.482;2023-11-18T04:11:39;101688.41;;;7.96;76.18
4981;BME280;2507;50.392;7.482;2023-11-18T04:14:05;101675.81;;;8.04;74.89
4981;BME280;2507;50.392;7.482;2023-11-18T04:16:30;101683.41;;;7.90;74.93
4981;BME280;2507;50.392;7.482;2023-11-18T04:18:55;101682.84;;;8.03;75.42
4981;BME280;2507;50.392;7.482;2023-11-18T04:21:21;101694.25;;;8.01;74.40
4981;BME280;2507;50.392;7.482;2023-11-18T04:23:46;101685.25;;;8.28;73.69
4981;BME280;2507;50.392;7.482;2023-11-18T04:26:12;101687.47;;;8.37;72.24
4981;BME280;2507;50.392;7.482;2023-11-18T04:28:37;101692.31;;;8.26;72.54
4981;BME280;2507;50.392;7.482;2023-11-18T04:31:03;101693.63;;;8.16;72.76
4981;BME280;2507;50.392;7.482;2023-11-18T04:33:30;101684.38;;;7.67;75.16
4981;BME280;2507;50.392;7.482;2023-11-18T04:35:56;101691.34;;;7.47;76.86
4981;BME280;2507;50.392;7.482;2023-11-18T04:38:25;101698.50;;;7.42;78.03
4981;BME280;2507;50.392;7.482;2023-11-18T04:40:51;101693.47;;;7.37;78.28
4981;BME280;2507;50.392;7.482;2023-11-18T04:43:16;101684.19;;;7.72;78.59
4981;BME280;2507;50.392;7.482;2023-11-18T04:45:42;101686.81;;;7.92;76.88
4981;BME280;2507;50.392;7.482;2023-11-18T04:48:08;101676.13;;;7.98;76.14
4981;BME280;2507;50.392;7.482;2023-11-18T04:50:33;101671.78;;;8.17;74.94
4981;BME280;2507;50.392;7.482;2023-11-18T04:52:59;101675.97;;;8.41;73.92
4981;BME280;2507;50.392;7.482;2023-11-18T04:55:25;101672.31;;;8.45;73.43
4981;BME280;2507;50.392;7.482;2023-11-18T04:57:53;101671.16;;;8.32;73.53
4981;BME280;2507;50.392;7.482;2023-11-18T05:00:18;101678.56;;;8.41;73.33
4981;BME280;2507;50.392;7.482;2023-11-18T05:02:45;101659.00;;;8.50;73.02
4981;BME280;2507;50.392;7.482;2023-11-18T05:05:13;101658.38;;;8.45;72.74
4981;BME280;2507;50.392;7.482;2023-11-18T05:07:40;101675.41;;;8.53;72.85
4981;BME280;2507;50.392;7.482;2023-11-18T05:10:06;101653.94;;;8.65;71.79
4981;BME280;2507;50.392;7.482;2023-11-18T05:12:33;101662.25;;;8.55;72.42
4981;BME280;2507;50.392;7.482;2023-11-18T05:14:58;101644.38;;;8.64;71.46
4981;BME280;2507;50.392;7.482;2023-11-18T05:17:24;101652.50;;;8.77;71.14
4981;BME280;2507;50.392;7.482;2023-11-18T05:19:49;101631.00;;;8.52;71.46
4981;BME280;2507;50.392;7.482;2023-11-18T05:22:14;101632.34;;;8.60;71.20
4981;BME280;2507;50.392;7.482;2023-11-18T05:24:40;101631.13;;;8.67;71.28
4981;BME280;2507;50.392;7.482;2023-11-18T05:27:06;101633.00;;;8.65;70.46
4981;BME280;2507;50.392;7.482;2023-11-18T05:29:32;101623.94;;;8.72;71.03
4981;BME280;2507;50.392;7.482;2023-11-18T05:31:57;101625.34;;;8.61;70.70
4981;BME280;2507;50.392;7.482;2023-11-18T05:34:23;101620.31;;;8.75;70.92
4981;BME280;2507;50.392;7.482;2023-11-18T05:36:49;101608.63;;;8.82;70.63
4981;BME280;2507;50.392;7.482;2023-11-18T05:39:20;101620.03;;;8.62;69.58
4981;BME280;2507;50.392;7.482;2023-11-18T05:41:45;101607.13;;;8.59;70.39
4981;BME280;2507;50.392;7.482;2023-11-18T05:44:15;101618.28;;;8.63;69.49
4981;BME280;2507;50.392;7.482;2023-11-18T05:46:45;101623.72;;;8.58;70.00
4981;BME280;2507;50.392;7.482;2023-11-18T05:49:12;101614.59;;;8.48;70.10
4981;BME280;2507;50.392;7.482;2023-11-18T05:51:39;101615.03;;;8.39;70.67
4981;BME280;2507;50.392;7.482;2023-11-18T05:54:08;101620.41;;;8.36;70.83
4981;BME280;2507;50.392;7.482;2023-11-18T05:56:33;101618.97;;;8.48;70.48
4981;BME280;2507;50.392;7.482;2023-11-18T05:58:59;101609.38;;;8.48;70.39
4981;BME280;2507;50.392;7.482;2023-11-18T06:01:24;101611.06;;;8.49;70.17
4981;BME280;2507;50.392;7.482;2023-11-18T06:03:52;101612.06;;;8.47;70.87
4981;BME280;2507;50.392;7.482;2023-11-18T06:06:18;101610.50;;;8.61;70.33
4981;BME280;2507;50.392;7.482;2023-11-18T06:08:43;101596.00;;;8.73;69.18
4981;BME280;2507;50.392;7.482;2023-11-18T06:11:10;101592.81;;;8.66;69.54
4981;BME280;2507;50.392;7.482;2023-11-18T06:14:15;101588.25;;;8.53;70.02
4981;BME280;2507;50.392;7.482;2023-11-18T06:16:40;101592.47;;;8.55;69.91
4981;BME280;2507;50.392;7.482;2023-11-18T06:19:05;101573.19;;;8.58;70.42
4981;BME280;2507;50.392;7.482;2023-11-18T06:21:31;101576.00;;;8.53;70.11
4981;BME280;2507;50.392;7.482;2023-11-18T06:23:57;101584.69;;;8.35;70.43
4981;BME280;2507;50.392;7.482;2023-11-18T06:26:23;101599.16;;;8.23;71.59
4981;BME280;2507;50.392;7.482;2023-11-18T06:28:52;101611.28;;;8.26;72.39
4981;BME280;2507;50.392;7.482;2023-11-18T06:31:19;101604.00;;;8.51;71.38
4981;BME280;2507;50.392;7.482;2023-11-18T06:33:46;101620.28;;;8.58;70.87
4981;BME280;2507;50.392;7.482;2023-11-18T06:38:44;101604.84;;;8.33;70.47
4981;BME280;2507;50.392;7.482;2023-11-18T06:41:11;101595.38;;;8.31;71.19
4981;BME280;2507;50.392;7.482;2023-11-18T06:43:37;101600.38;;;8.35;70.16
4981;BME280;2507;50.392;7.482;2023-11-18T06:46:26;101593.66;;;8.30;70.98
4981;BME280;2507;50.392;7.482;2023-11-18T06:48:54;101586.56;;;8.13;71.80
4981;BME280;2507;50.392;7.482;2023-11-18T06:51:24;101589.50;;;7.87;72.58
4981;BME280;2507;50.392;7.482;2023-11-18T06:53:53;101583.81;;;7.77;73.57
4981;BME280;2507;50.392;7.482;2023-11-18T06:56:22;101587.13;;;7.81;73.19
4981;BME280;2507;50.392;7.482;2023-11-18T06:58:47;101569.81;;;7.78;74.29
4981;BME280;2507;50.392;7.482;2023-11-18T07:01:13;101563.44;;;7.85;73.72
4981;BME280;2507;50.392;7.482;2023-11-18T07:03:43;101563.28;;;7.88;73.45
4981;BME280;2507;50.392;7.482;2023-11-18T07:06:09;101573.78;;;8.07;73.37
4981;BME280;2507;50.392;7.482;2023-11-18T07:08:35;101582.34;;;8.10;72.75
4981;BME280;2507;50.392;7.482;2023-11-18T07:11:01;101603.84;;;7.97;72.96
4981;BME280;2507;50.392;7.482;2023-11-18T07:13:27;101620.16;;;8.02;72.97
4981;BME280;2507;50.392;7.482;2023-11-18T07:15:52;101621.72;;;8.06;72.67
4981;BME280;2507;50.392;7.482;2023-11-18T07:18:19;101611.97;;;8.09;72.79
4981;BME280;2507;50.392;7.482;2023-11-18T07:20:47;101613.38;;;8.18;72.07
4981;BME280;2507;50.392;7.482;2023-11-18T07:23:13;101600.97;;;8.03;72.70
4981;BME280;2507;50.392;7.482;2023-11-18T07:25:38;101616.00;;;8.16;72.11
4981;BME280;2507;50.392;7.482;2023-11-18T07:28:03;101624.34;;;8.26;71.46
4981;BME280;2507;50.392;7.482;2023-11-18T07:30:30;101611.09;;;8.10;72.26
4981;BME280;2507;50.392;7.482;2023-11-18T07:32:55;101611.16;;;8.09;72.96
4981;BME280;2507;50.392;7.482;2023-11-18T07:35:24;101606.28;;;8.20;72.03
4981;BME280;2507;50.392;7.482;2023-11-18T07:37:49;101610.41;;;8.05;72.89
4981;BME280;2507;50.392;7.482;2023-11-18T07:40:14;101620.28;;;8.19;71.88
4981;BME280;2507;50.392;7.482;2023-11-18T07:42:47;101632.31;;;8.03;72.68
4981;BME280;2507;50.392;7.482;2023-11-18T07:45:12;101639.69;;;8.13;73.31
4981;BME280;2507;50.392;7.482;2023-11-18T07:47:44;101639.13;;;8.46;71.43
4981;BME280;2507;50.392;7.482;2023-11-18T07:50:09;101634.56;;;8.51;71.62
4981;BME280;2507;50.392;7.482;2023-11-18T07:52:39;101633.06;;;8.64;69.95
4981;BME280;2507;50.392;7.482;2023-11-18T07:55:04;101639.75;;;8.69;69.51
4981;BME280;2507;50.392;7.482;2023-11-18T07:57:30;101628.94;;;8.77;69.83
4981;BME280;2507;50.392;7.482;2023-11-18T07:59:55;101627.69;;;8.85;69.27
4981;BME280;2507;50.392;7.482;2023-11-18T08:02:20;101619.69;;;8.88;68.99
4981;BME280;2507;50.392;7.482;2023-11-18T08:04:46;101617.97;;;8.87;69.08
4981;BME280;2507;50.392;7.482;2023-11-18T08:07:11;101618.13;;;8.84;69.23
4981;BME280;2507;50.392;7.482;2023-11-18T08:09:36;101611.50;;;8.77;69.79
4981;BME280;2507;50.392;7.482;2023-11-18T08:12:05;101599.53;;;8.90;69.64
4981;BME280;2507;50.392;7.482;2023-11-18T08:14:31;101595.69;;;8.97;69.88
4981;BME280;2507;50.392;7.482;2023-11-18T08:16:57;101590.34;;;9.17;69.04
4981;BME280;2507;50.392;7.482;2023-11-18T08:19:25;101583.25;;;9.19;68.07
4981;BME280;2507;50.392;7.482;2023-11-18T08:21:51;101592.91;;;9.00;68.42
4981;BME280;2507;50.392;7.482;2023-11-18T08:24:17;101593.16;;;8.77;69.79
4981;BME280;2507;50.392;7.482;2023-11-18T08:26:43;101590.00;;;8.71;70.47
4981;BME280;2507;50.392;7.482;2023-11-18T08:29:08;101582.91;;;8.73;70.42
4981;BME280;2507;50.392;7.482;2023-11-18T08:31:34;101581.03;;;8.93;69.64
4981;BME280;2507;50.392;7.482;2023-11-18T08:34:00;101583.28;;;9.01;68.86
4981;BME280;2507;50.392;7.482;2023-11-18T08:36:25;101586.44;;;9.07;69.28
4981;BME280;2507;50.392;7.482;2023-11-18T08:38:57;101585.00;;;9.19;68.78
4981;BME280;2507;50.392;7.482;2023-11-18T08:41:23;101587.41;;;9.41;68.33
4981;BME280;2507;50.392;7.482;2023-11-18T08:43:49;101586.56;;;9.74;67.61
4981;BME280;2507;50.392;7.482;2023-11-18T08:46:15;101588.63;;;9.85;65.87
4981;BME280;2507;50.392;7.482;2023-11-18T08:48:40;101591.94;;;9.88;66.01
4981;BME280;2507;50.392;7.482;2023-11-18T08:51:07;101594.63;;;9.87;65.84
4981;BME280;2507;50.392;7.482;2023-11-18T08:53:34;101584.75;;;9.92;65.85
4981;BME280;2507;50.392;7.482;2023-11-18T08:56:10;101589.34;;;10.04;65.38
4981;BME280;2507;50.392;7.482;2023-11-18T08:58:45;101591.59;;;10.11;64.99
4981;BME280;2507;50.392;7.482;2023-11-18T09:01:11;101589.34;;;10.04;64.53
4981;BME280;2507;50.392;7.482;2023-11-18T09:03:40;101592.22;;;9.99;64.92
4981;BME280;2507;50.392;7.482;2023-11-18T09:06:13;101595.16;;;10.10;65.57
4981;BME280;2507;50.392;7.482;2023-11-18T09:08:51;101597.03;;;10.24;64.98
4981;BME280;2507;50.392;7.482;2023-11-18T09:11:22;101602.00;;;10.13;64.70
4981;BME280;2507;50.392;7.482;2023-11-18T09:13:48;101592.97;;;10.18;64.81
4981;BME280;2507;50.392;7.482;2023-11-18T09:16:15;101579.63;;;10.23;63.70
4981;BME280;2507;50.392;7.482;2023-11-18T09:18:43;101581.28;;;10.24;64.62
4981;BME280;2507;50.392;7.482;2023-11-18T09:21:11;101578.09;;;10.35;64.24
4981;BME280;2507;50.392;7.482;2023-11-18T09:23:41;101580.53;;;10.22;64.04
4981;BME280;2507;50.392;7.482;2023-11-18T09:26:07;101582.66;;;10.15;64.91
4981;BME280;2507;50.392;7.482;2023-11-18T09:28:34;101589.78;;;10.29;64.16
4981;BME280;2507;50.392;7.482;2023-11-18T09:31:00;101582.47;;;9.52;66.95
4981;BME280;2507;50.392;7.482;2023-11-18T09:33:29;101592.03;;;8.83;69.55
4981;BME280;2507;50.392;7.482;2023-11-18T09:36:04;101594.66;;;8.64;71.92
4981;BME280;2507;50.392;7.482;2023-11-18T09:38:34;101588.38;;;8.68;72.44
4981;BME280;2507;50.392;7.482;2023-11-18T09:41:08;101588.56;;;8.64;72.92
4981;BME280;2507;50.392;7.482;2023-11-18T09:43:37;101580.28;;;8.73;73.13
4981;BME280;2507;50.392;7.482;2023-11-18T09:46:11;101583.28;;;8.65;73.86
4981;BME280;2507;50.392;7.482;2023-11-18T09:51:25;101574.59;;;9.00;72.91
4981;BME280;2507;50.392;7.482;2023-11-18T09:53:58;101575.47;;;9.35;72.18
4981;BME280;2507;50.392;7.482;2023-11-18T09:59:22;101588.03;;;9.63;70.60
4981;BME280;2507;50.392;7.482;2023-11-18T10:01:51;101586.81;;;10.19;68.73
4981;BME280;2507;50.392;7.482;2023-11-18T10:04:19;101583.88;;;10.41;67.39
4981;BME280;2507;50.392;7.482;2023-11-18T10:06:46;101568.28;;;10.54;66.69
4981;BME280;2507;50.392;7.482;2023-11-18T10:09:12;101571.88;;;10.53;66.79
4981;BME280;2507;50.392;7.482;2023-11-18T10:11:47;101569.47;;;10.64;66.56
4981;BME280;2507;50.392;7.482;2023-11-18T10:14:14;101568.91;;;10.74;65.99
4981;BME280;2507;50.392;7.482;2023-11-18T10:16:41;101560.66;;;10.96;65.22
4981;BME280;2507;50.392;7.482;2023-11-18T10:19:07;101558.78;;;10.98;64.60
4981;BME280;2507;50.392;7.482;2023-11-18T10:21:37;101546.47;;;10.98;64.45
4981;BME280;2507;50.392;7.482;2023-11-18T10:24:08;101555.78;;;11.04;63.95
4981;BME280;2507;50.392;7.482;2023-11-18T10:26:43;101554.41;;;10.83;64.03
4981;BME280;2507;50.392;7.482;2023-11-18T10:29:10;101552.38;;;10.72;64.61
4981;BME280;2507;50.392;7.482;2023-11-18T10:31:38;101541.72;;;10.60;64.97
4981;BME280;2507;50.392;7.482;2023-11-18T10:34:13;101537.81;;;10.36;66.21
4981;BME280;2507;50.392;7.482;2023-11-18T10:36:41;101544.06;;;10.33;66.31
4981;BME280;2507;50.392;7.482;2023-11-18T10:39:11;101528.94;;;10.54;65.88
4981;BME280;2507;50.392;7.482;2023-11-18T10:41:42;101522.47;;;10.44;65.82
4981;BME280;2507;50.392;7.482;2023-11-18T10:44:08;101525.38;;;10.39;66.61
4981;BME280;2507;50.392;7.482;2023-11-18T10:46:39;101518.44;;;10.38;66.52
4981;BME280;2507;50.392;7.482;2023-11-18T10:49:05;101510.59;;;10.38;66.41
4981;BME280;2507;50.392;7.482;2023-11-18T10:51:35;101502.53;;;10.41;66.09
4981;BME280;2507;50.392;7.482;2023-11-18T10:54:04;101493.28;;;10.50;66.77
4981;BME280;2507;50.392;7.482;2023-11-18T10:56:31;101497.16;;;10.58;66.03
4981;BME280;2507;50.392;7.482;2023-11-18T10:59:06;101493.13;;;10.53;66.44
4981;BME280;2507;50.392;7.482;2023-11-18T11:01:36;101483.28;;;10.72;66.84
4981;BME280;2507;50.392;7.482;2023-11-18T11:04:08;101480.56;;;10.73;66.33
4981;BME280;2507;50.392;7.482;2023-11-18T11:06:36;101473.84;;;10.83;66.32
4981;BME280;2507;50.392;7.482;2023-11-18T11:09:06;101473.91;;;10.82;66.81
4981;BME280;2507;50.392;7.482;2023-11-18T11:11:40;101465.22;;;10.81;66.76
4981;BME280;2507;50.392;7.482;2023-11-18T11:14:12;101447.59;;;10.83;66.64
4981;BME280;2507;50.392;7.482;2023-11-18T11:16:42;101443.00;;;10.87;66.67
4981;BME280;2507;50.392;7.482;2023-11-18T11:19:30;101439.47;;;11.02;66.25
4981;BME280;2507;50.392;7.482;2023-11-18T11:22:07;101435.41;;;10.96;66.19
4981;BME280;2507;50.392;7.482;2023-11-18T11:25:06;101437.47;;;10.91;65.98
4981;BME280;2507;50.392;7.482;2023-11-18T11:30:44;101415.25;;;10.83;67.76
4981;BME280;2507;50.392;7.482;2023-11-18T11:35:40;101408.84;;;11.30;65.61
4981;BME280;2507;50.392;7.482;2023-11-18T11:38:15;101395.31;;;11.22;66.26
4981;BME280;2507;50.392;7.482;2023-11-18T11:40:42;101405.06;;;11.20;66.04
4981;BME280;2507;50.392;7.482;2023-11-18T11:43:09;101411.06;;;11.08;66.65
4981;BME280;2507;50.392;7.482;2023-11-18T11:45:36;101400.63;;;10.93;68.10
4981;BME280;2507;50.392;7.482;2023-11-18T11:48:03;101401.50;;;11.07;68.30
4981;BME280;2507;50.392;7.482;2023-11-18T11:53:40;101400.59;;;10.79;69.32
4981;BME280;2507;50.392;7.482;2023-11-18T11:56:11;101391.06;;;11.06;69.38
4981;BME280;2507;50.392;7.482;2023-11-18T11:58:41;101388.03;;;11.42;68.46
4981;BME280;2507;50.392;7.482;2023-11-18T12:01:35;101384.34;;;11.72;66.94
4981;BME280;2507;50.392;7.482;2023-11-18T12:04:08;101376.91;;;11.79;66.79
4981;BME280;2507;50.392;7.482;2023-11-18T12:06:45;101379.25;;;11.83;66.81
4981;BME280;2507;50.392;7.482;2023-11-18T12:09:13;101370.16;;;11.61;66.38
4981;BME280;2507;50.392;7.482;2023-11-18T12:11:45;101372.41;;;11.39;68.12
4981;BME280;2507;50.392;7.482;2023-11-18T12:14:15;101357.88;;;11.33;69.08
4981;BME280;2507;50.392;7.482;2023-11-18T12:17:05;101358.16;;;11.43;69.31
4981;BME280;2507;50.392;7.482;2023-11-18T12:19:47;101368.19;;;11.22;69.97
4981;BME280;2507;50.392;7.482;2023-11-18T12:22:24;101349.81;;;11.08;71.44
4981;BME280;2507;50.392;7.482;2023-11-18T12:33:03;101321.38;;;12.10;66.42
4981;BME280;2507;50.392;7.482;2023-11-18T12:41:04;101293.31;;;12.10;65.28
4981;BME280;2507;50.392;7.482;2023-11-18T12:47:03;101265.84;;;12.14;65.39
4981;BME280;2507;50.392;7.482;2023-11-18T12:49:41;101249.44;;;12.23;64.47
4981;BME280;2507;50.392;7.482;2023-11-18T12:52:11;101249.63;;;12.20;64.40
4981;BME280;2507;50.392;7.482;2023-11-18T12:54:40;101254.03;;;12.20;65.13
4981;BME280;2507;50.392;7.482;2023-11-18T12:57:12;101234.16;;;12.16;65.33
4981;BME280;2507;50.392;7.482;2023-11-18T12:59:41;101232.44;;;12.02;66.43
4981;BME280;2507;50.392;7.482;2023-11-18T13:02:10;101232.53;;;11.88;67.23
4981;BME280;2507;50.392;7.482;2023-11-18T13:04:43;101221.97;;;11.76;67.11
4981;BME280;2507;50.392;7.482;2023-11-18T13:07:13;101226.13;;;11.66;67.34
4981;BME280;2507;50.392;7.482;2023-11-18T13:09:38;101217.44;;;11.65;67.58
4981;BME280;2507;50.392;7.482;2023-11-18T13:12:06;101205.84;;;11.68;67.72
4981;BME280;2507;50.392;7.482;2023-11-18T13:14:34;101205.56;;;11.58;67.48
4981;BME280;2507;50.392;7.482;2023-11-18T13:17:03;101197.75;;;11.44;67.93
4981;BME280;2507;50.392;7.482;2023-11-18T13:19:31;101205.38;;;11.34;68.44
4981;BME280;2507;50.392;7.482;2023-11-18T13:22:00;101205.78;;;11.28;68.49
4981;BME280;2507;50.392;7.482;2023-11-18T13:24:28;101215.94;;;11.20;68.62
4981;BME280;2507;50.392;7.482;2023-11-18T13:26:55;101223.81;;;11.20;68.98
4981;BME280;2507;50.392;7.482;2023-11-18T13:29:22;101222.25;;;11.18;68.98
4981;BME280;2507;50.392;7.482;2023-11-18T13:31:49;101229.91;;;11.21;69.30
4981;BME280;2507;50.392;7.482;2023-11-18T13:34:17;101217.78;;;11.32;68.41
4981;BME280;2507;50.392;7.482;2023-11-18T13:36:42;101214.59;;;11.27;68.65
4981;BME280;2507;50.392;7.482;2023-11-18T13:39:15;101206.31;;;11.33;68.30
4981;BME280;2507;50.392;7.482;2023-11-18T13:41:42;101215.72;;;11.38;68.47
4981;BME280;2507;50.392;7.482;2023-11-18T13:44:07;101221.28;;;11.46;68.39
4981;BME280;2507;50.392;7.482;2023-11-18T13:46:33;101212.50;;;11.47;68.02
4981;BME280;2507;50.392;7.482;2023-11-18T13:48:58;101190.28;;;11.38;68.70
4981;BME280;2507;50.392;7.482;2023-11-18T13:51:24;101170.13;;;11.24;69.64
4981;BME280;2507;50.392;7.482;2023-11-18T13:53:50;101193.94;;;11.36;68.97
4981;BME280;2507;50.392;7.482;2023-11-18T13:56:18;101209.31;;;11.42;69.03